sensor_id;sensor_type;location;lat;lon;timestamp;P1;durP1;ratioP1;P2;durP2;ratioP2
79241;SDS011;68670;48.720;9.118;2024-01-30T00:00:12;4.55;;;2.95;;
79241;SDS011;68670;48.720;9.118;2024-01-30T00:02:37;6.28;;;3.15;;
79241;SDS011;68670;48.720;9.118;2024-01-30T00:05:03;7.33;;;3.30;;
79241;SDS011;68670;48.720;9.118;2024-01-30T00:07:28;7.28;;;3.80;;
79241;SDS011;68670;48.720;9.118;2024-01-30T00:09:54;5.00;;;3.10;;
79241;SDS011;68670;48.720;9.118;2024-01-30T00:12:21;7.88;;;3.13;;
79241;SDS011;68670;48.720;9.118;2024-01-30T00:14:46;7.73;;;3.40;;
79241;SDS011;68670;48.720;9.118;2024-01-30T00:17:12;6.77;;;3.10;;
79241;SDS011;68670;48.720;9.118;2024-01-30T00:19:37;5.68;;;3.05;;
79241;SDS011;68670;48.720;9.118;2024-01-30T00:22:02;5.63;;;2.83;;
79241;SDS011;68670;48.720;9.118;2024-01-30T00:24:28;5.88;;;3.17;;
79241;SDS011;68670;48.720;9.118;2024-01-30T00:26:53;8.37;;;3.50;;
79241;SDS011;68670;48.720;9.118;2024-01-30T00:29:19;6.67;;;3.10;;
79241;SDS011;68670;48.720;9.118;2024-01-30T00:31:44;6.70;;;3.28;;
79241;SDS011;68670;48.720;9.118;2024-01-30T00:34:10;6.35;;;3.00;;
79241;SDS011;68670;48.720;9.118;2024-01-30T00:36:36;7.57;;;3.33;;
79241;SDS011;68670;48.720;9.118;2024-01-30T00:39:02;7.47;;;3.75;;
79241;SDS011;68670;48.720;9.118;2024-01-30T00:41:33;9.00;;;3.28;;
79241;SDS011;68670;48.720;9.118;2024-01-30T00:43:59;6.38;;;3.42;;
79241;SDS011;68670;48.720;9.118;2024-01-30T00:46:27;8.25;;;3.63;;
79241;SDS011;68670;48.720;9.118;2024-01-30T00:48:52;7.57;;;3.60;;
79241;SDS011;68670;48.720;9.118;2024-01-30T00:51:17;8.43;;;3.80;;
79241;SDS011;68670;48.720;9.118;2024-01-30T00:53:43;5.57;;;3.33;;
79241;SDS011;68670;48.720;9.118;2024-01-30T00:56:08;8.60;;;3.60;;
79241;SDS011;68670;48.720;9.118;2024-01-30T00:58:34;8.47;;;3.83;;
79241;SDS011;68670;48.720;9.118;2024-01-30T01:01:02;7.55;;;3.38;;
79241;SDS011;68670;48.720;9.118;2024-01-30T01:03:29;7.18;;;3.65;;
79241;SDS011;68670;48.720;9.118;2024-01-30T01:05:55;6.73;;;3.57;;
79241;SDS011;68670;48.720;9.118;2024-01-30T01:08:20;5.78;;;3.47;;
79241;SDS011;68670;48.720;9.118;2024-01-30T01:10:48;7.03;;;3.40;;
79241;SDS011;68670;48.720;9.118;2024-01-30T01:13:13;7.60;;;3.55;;
79241;SDS011;68670;48.720;9.118;2024-01-30T01:15:39;9.40;;;3.73;;
79241;SDS011;68670;48.720;9.118;2024-01-30T01:18:04;8.30;;;3.50;;
79241;SDS011;68670;48.720;9.118;2024-01-30T01:20:32;6.45;;;3.50;;
79241;SDS011;68670;48.720;9.118;2024-01-30T01:22:57;7.60;;;3.20;;
79241;SDS011;68670;48.720;9.118;2024-01-30T01:25:22;8.40;;;3.87;;
79241;SDS011;68670;48.720;9.118;2024-01-30T01:27:48;7.05;;;3.50;;
79241;SDS011;68670;48.720;9.118;2024-01-30T01:30:16;5.47;;;3.15;;
79241;SDS011;68670;48.720;9.118;2024-01-30T01:35:19;7.95;;;3.42;;
79241;SDS011;68670;48.720;9.118;2024-01-30T01:37:47;7.25;;;3.55;;
79241;SDS011;68670;48.720;9.118;2024-01-30T01:40:22;7.47;;;3.30;;
79241;SDS011;68670;48.720;9.118;2024-01-30T01:42:49;7.55;;;3.63;;
79241;SDS011;68670;48.720;9.118;2024-01-30T01:47:47;6.70;;;3.22;;
79241;SDS011;68670;48.720;9.118;2024-01-30T01:50:16;7.68;;;3.67;;
79241;SDS011;68670;48.720;9.118;2024-01-30T01:52:44;7.75;;;3.65;;
79241;SDS011;68670;48.720;9.118;2024-01-30T01:55:11;6.45;;;3.45;;
79241;SDS011;68670;48.720;9.118;2024-01-30T01:57:37;7.05;;;3.60;;
79241;SDS011;68670;48.720;9.118;2024-01-30T02:00:05;7.53;;;3.50;;
79241;SDS011;68670;48.720;9.118;2024-01-30T02:02:35;8.38;;;3.38;;
79241;SDS011;68670;48.720;9.118;2024-01-30T02:05:01;7.95;;;3.65;;
79241;SDS011;68670;48.720;9.118;2024-01-30T02:07:27;6.22;;;3.17;;
79241;SDS011;68670;48.720;9.118;2024-01-30T02:09:55;9.20;;;3.78;;
79241;SDS011;68670;48.720;9.118;2024-01-30T02:12:23;7.83;;;3.40;;
79241;SDS011;68670;48.720;9.118;2024-01-30T02:14:48;5.53;;;3.38;;
79241;SDS011;68670;48.720;9.118;2024-01-30T02:17:15;6.05;;;3.40;;
79241;SDS011;68670;48.720;9.118;2024-01-30T02:19:43;8.52;;;3.53;;
79241;SDS011;68670;48.720;9.118;2024-01-30T02:22:10;7.07;;;3.40;;
79241;SDS011;68670;48.720;9.118;2024-01-30T02:24:36;6.35;;;3.67;;
79241;SDS011;68670;48.720;9.118;2024-01-30T02:27:01;8.37;;;3.70;;
79241;SDS011;68670;48.720;9.118;2024-01-30T02:29:26;8.32;;;3.50;;
79241;SDS011;68670;48.720;9.118;2024-01-30T02:31:52;5.83;;;2.90;;
79241;SDS011;68670;48.720;9.118;2024-01-30T02:34:18;6.00;;;3.30;;
79241;SDS011;68670;48.720;9.118;2024-01-30T02:36:44;6.88;;;3.30;;
79241;SDS011;68670;48.720;9.118;2024-01-30T02:39:10;7.05;;;3.88;;
79241;SDS011;68670;48.720;9.118;2024-01-30T02:41:35;7.53;;;3.30;;
79241;SDS011;68670;48.720;9.118;2024-01-30T02:44:01;7.20;;;3.20;;
79241;SDS011;68670;48.720;9.118;2024-01-30T02:46:27;7.72;;;3.17;;
79241;SDS011;68670;48.720;9.118;2024-01-30T02:48:53;6.20;;;3.40;;
79241;SDS011;68670;48.720;9.118;2024-01-30T02:51:18;5.47;;;3.03;;
79241;SDS011;68670;48.720;9.118;2024-01-30T02:53:46;7.70;;;3.15;;
79241;SDS011;68670;48.720;9.118;2024-01-30T02:56:11;6.55;;;3.15;;
79241;SDS011;68670;48.720;9.118;2024-01-30T02:58:40;6.10;;;3.30;;
79241;SDS011;68670;48.720;9.118;2024-01-30T03:01:07;7.32;;;3.72;;
79241;SDS011;68670;48.720;9.118;2024-01-30T03:03:33;6.80;;;3.30;;
79241;SDS011;68670;48.720;9.118;2024-01-30T03:06:00;5.13;;;2.92;;
79241;SDS011;68670;48.720;9.118;2024-01-30T03:08:28;5.82;;;3.30;;
79241;SDS011;68670;48.720;9.118;2024-01-30T03:10:53;7.03;;;3.20;;
79241;SDS011;68670;48.720;9.118;2024-01-30T03:13:19;5.83;;;3.07;;
79241;SDS011;68670;48.720;9.118;2024-01-30T03:15:44;5.65;;;2.90;;
79241;SDS011;68670;48.720;9.118;2024-01-30T03:18:10;8.18;;;3.17;;
79241;SDS011;68670;48.720;9.118;2024-01-30T03:20:35;7.07;;;3.13;;
79241;SDS011;68670;48.720;9.118;2024-01-30T03:23:00;7.20;;;3.87;;
79241;SDS011;68670;48.720;9.118;2024-01-30T03:25:26;7.70;;;3.40;;
79241;SDS011;68670;48.720;9.118;2024-01-30T03:27:51;6.82;;;3.45;;
79241;SDS011;68670;48.720;9.118;2024-01-30T03:30:21;5.72;;;3.40;;
79241;SDS011;68670;48.720;9.118;2024-01-30T03:32:48;6.95;;;2.90;;
79241;SDS011;68670;48.720;9.118;2024-01-30T03:37:44;7.05;;;3.17;;
79241;SDS011;68670;48.720;9.118;2024-01-30T03:40:09;6.57;;;3.13;;
79241;SDS011;68670;48.720;9.118;2024-01-30T03:42:37;5.57;;;3.03;;
79241;SDS011;68670;48.720;9.118;2024-01-30T03:45:04;6.88;;;3.22;;
79241;SDS011;68670;48.720;9.118;2024-01-30T03:47:30;5.63;;;2.80;;
79241;SDS011;68670;48.720;9.118;2024-01-30T03:49:55;6.63;;;3.47;;
79241;SDS011;68670;48.720;9.118;2024-01-30T03:52:20;7.50;;;3.47;;
79241;SDS011;68670;48.720;9.118;2024-01-30T03:54:46;5.27;;;3.03;;
79241;SDS011;68670;48.720;9.118;2024-01-30T03:57:11;4.82;;;2.72;;
79241;SDS011;68670;48.720;9.118;2024-01-30T03:59:37;6.15;;;2.80;;
79241;SDS011;68670;48.720;9.118;2024-01-30T04:02:03;7.28;;;3.03;;
79241;SDS011;68670;48.720;9.118;2024-01-30T04:04:28;6.47;;;2.92;;
79241;SDS011;68670;48.720;9.118;2024-01-30T04:06:54;7.70;;;3.20;;
79241;SDS011;68670;48.720;9.118;2024-01-30T04:09:19;5.80;;;3.10;;
79241;SDS011;68670;48.720;9.118;2024-01-30T04:11:44;7.90;;;3.53;;
79241;SDS011;68670;48.720;9.118;2024-01-30T04:14:10;7.22;;;3.42;;
79241;SDS011;68670;48.720;9.118;2024-01-30T04:16:35;7.68;;;3.40;;
79241;SDS011;68670;48.720;9.118;2024-01-30T04:19:03;7.70;;;3.10;;
79241;SDS011;68670;48.720;9.118;2024-01-30T04:23:58;5.63;;;2.67;;
79241;SDS011;68670;48.720;9.118;2024-01-30T04:26:26;5.70;;;2.83;;
79241;SDS011;68670;48.720;9.118;2024-01-30T04:28:53;5.40;;;3.05;;
79241;SDS011;68670;48.720;9.118;2024-01-30T04:31:23;7.63;;;3.25;;
79241;SDS011;68670;48.720;9.118;2024-01-30T04:33:48;6.10;;;3.07;;
79241;SDS011;68670;48.720;9.118;2024-01-30T04:36:14;7.43;;;3.22;;
79241;SDS011;68670;48.720;9.118;2024-01-30T04:38:39;8.27;;;3.40;;
79241;SDS011;68670;48.720;9.118;2024-01-30T04:41:04;8.47;;;3.83;;
79241;SDS011;68670;48.720;9.118;2024-01-30T04:43:30;7.22;;;3.22;;
79241;SDS011;68670;48.720;9.118;2024-01-30T04:45:55;8.90;;;3.15;;
79241;SDS011;68670;48.720;9.118;2024-01-30T04:48:21;6.73;;;3.33;;
79241;SDS011;68670;48.720;9.118;2024-01-30T04:50:48;7.30;;;3.10;;
79241;SDS011;68670;48.720;9.118;2024-01-30T04:53:14;6.17;;;3.23;;
79241;SDS011;68670;48.720;9.118;2024-01-30T04:55:41;7.85;;;3.50;;
79241;SDS011;68670;48.720;9.118;2024-01-30T04:58:06;6.27;;;3.20;;
79241;SDS011;68670;48.720;9.118;2024-01-30T05:00:32;6.00;;;3.25;;
79241;SDS011;68670;48.720;9.118;2024-01-30T05:02:57;9.70;;;3.57;;
79241;SDS011;68670;48.720;9.118;2024-01-30T05:05:24;7.30;;;3.55;;
79241;SDS011;68670;48.720;9.118;2024-01-30T05:07:52;6.03;;;3.13;;
79241;SDS011;68670;48.720;9.118;2024-01-30T05:10:19;6.57;;;3.28;;
79241;SDS011;68670;48.720;9.118;2024-01-30T05:12:47;7.70;;;3.45;;
79241;SDS011;68670;48.720;9.118;2024-01-30T05:15:14;8.10;;;3.38;;
79241;SDS011;68670;48.720;9.118;2024-01-30T05:17:40;8.23;;;3.20;;
79241;SDS011;68670;48.720;9.118;2024-01-30T05:20:05;6.15;;;2.80;;
79241;SDS011;68670;48.720;9.118;2024-01-30T05:22:34;6.28;;;3.38;;
79241;SDS011;68670;48.720;9.118;2024-01-30T05:24:59;6.27;;;3.00;;
79241;SDS011;68670;48.720;9.118;2024-01-30T05:27:24;6.73;;;3.60;;
79241;SDS011;68670;48.720;9.118;2024-01-30T05:29:50;7.50;;;3.17;;
79241;SDS011;68670;48.720;9.118;2024-01-30T05:32:15;10.93;;;4.07;;
79241;SDS011;68670;48.720;9.118;2024-01-30T05:34:40;7.03;;;2.90;;
79241;SDS011;68670;48.720;9.118;2024-01-30T05:37:06;6.20;;;3.43;;
79241;SDS011;68670;48.720;9.118;2024-01-30T05:39:31;6.00;;;3.47;;
79241;SDS011;68670;48.720;9.118;2024-01-30T05:41:58;4.80;;;2.38;;
79241;SDS011;68670;48.720;9.118;2024-01-30T05:44:23;6.85;;;3.35;;
79241;SDS011;68670;48.720;9.118;2024-01-30T05:46:48;6.23;;;3.57;;
79241;SDS011;68670;48.720;9.118;2024-01-30T05:49:16;7.70;;;3.90;;
79241;SDS011;68670;48.720;9.118;2024-01-30T05:51:41;7.20;;;2.97;;
79241;SDS011;68670;48.720;9.118;2024-01-30T05:54:09;7.30;;;3.30;;
79241;SDS011;68670;48.720;9.118;2024-01-30T05:56:36;8.38;;;3.85;;
79241;SDS011;68670;48.720;9.118;2024-01-30T05:59:01;6.30;;;3.50;;
79241;SDS011;68670;48.720;9.118;2024-01-30T06:01:27;8.00;;;3.90;;
79241;SDS011;68670;48.720;9.118;2024-01-30T06:03:52;8.48;;;3.78;;
79241;SDS011;68670;48.720;9.118;2024-01-30T06:06:17;5.87;;;3.30;;
79241;SDS011;68670;48.720;9.118;2024-01-30T06:08:43;7.70;;;3.10;;
79241;SDS011;68670;48.720;9.118;2024-01-30T06:11:11;8.85;;;3.20;;
79241;SDS011;68670;48.720;9.118;2024-01-30T06:13:37;7.20;;;3.67;;
79241;SDS011;68670;48.720;9.118;2024-01-30T06:16:04;7.88;;;3.67;;
79241;SDS011;68670;48.720;9.118;2024-01-30T06:18:36;10.98;;;3.45;;
79241;SDS011;68670;48.720;9.118;2024-01-30T06:21:02;7.73;;;3.77;;
79241;SDS011;68670;48.720;9.118;2024-01-30T06:23:27;8.70;;;3.67;;
79241;SDS011;68670;48.720;9.118;2024-01-30T06:25:52;5.67;;;2.80;;
79241;SDS011;68670;48.720;9.118;2024-01-30T06:28:18;7.78;;;3.35;;
79241;SDS011;68670;48.720;9.118;2024-01-30T06:30:43;7.63;;;3.80;;
79241;SDS011;68670;48.720;9.118;2024-01-30T06:33:11;7.68;;;3.40;;
79241;SDS011;68670;48.720;9.118;2024-01-30T06:35:39;8.13;;;3.50;;
79241;SDS011;68670;48.720;9.118;2024-01-30T06:38:05;9.32;;;3.88;;
79241;SDS011;68670;48.720;9.118;2024-01-30T06:40:30;7.75;;;3.55;;
79241;SDS011;68670;48.720;9.118;2024-01-30T06:42:56;15.33;;;6.17;;
79241;SDS011;68670;48.720;9.118;2024-01-30T06:45:21;7.23;;;4.03;;
79241;SDS011;68670;48.720;9.118;2024-01-30T06:47:46;8.93;;;3.43;;
79241;SDS011;68670;48.720;9.118;2024-01-30T06:50:14;8.25;;;3.47;;
79241;SDS011;68670;48.720;9.118;2024-01-30T06:52:39;11.02;;;4.15;;
79241;SDS011;68670;48.720;9.118;2024-01-30T06:55:04;10.23;;;4.53;;
79241;SDS011;68670;48.720;9.118;2024-01-30T06:57:30;8.60;;;4.00;;
79241;SDS011;68670;48.720;9.118;2024-01-30T06:59:55;8.47;;;3.83;;
79241;SDS011;68670;48.720;9.118;2024-01-30T07:02:21;8.30;;;3.88;;
79241;SDS011;68670;48.720;9.118;2024-01-30T07:04:48;8.65;;;4.22;;
79241;SDS011;68670;48.720;9.118;2024-01-30T07:07:14;8.75;;;3.92;;
79241;SDS011;68670;48.720;9.118;2024-01-30T07:09:40;7.65;;;3.50;;
79241;SDS011;68670;48.720;9.118;2024-01-30T07:12:06;7.10;;;3.47;;
79241;SDS011;68670;48.720;9.118;2024-01-30T07:14:34;8.20;;;3.85;;
79241;SDS011;68670;48.720;9.118;2024-01-30T07:19:29;5.90;;;3.40;;
79241;SDS011;68670;48.720;9.118;2024-01-30T07:21:54;5.65;;;3.17;;
79241;SDS011;68670;48.720;9.118;2024-01-30T07:24:20;10.90;;;4.27;;
79241;SDS011;68670;48.720;9.118;2024-01-30T07:26:45;8.90;;;3.93;;
79241;SDS011;68670;48.720;9.118;2024-01-30T07:29:10;7.43;;;3.93;;
79241;SDS011;68670;48.720;9.118;2024-01-30T07:31:36;10.43;;;4.20;;
79241;SDS011;68670;48.720;9.118;2024-01-30T07:34:01;7.27;;;3.60;;
79241;SDS011;68670;48.720;9.118;2024-01-30T07:36:27;6.63;;;3.72;;
79241;SDS011;68670;48.720;9.118;2024-01-30T07:38:52;10.00;;;4.13;;
79241;SDS011;68670;48.720;9.118;2024-01-30T07:41:19;9.75;;;4.00;;
79241;SDS011;68670;48.720;9.118;2024-01-30T07:43:49;9.30;;;4.20;;
79241;SDS011;68670;48.720;9.118;2024-01-30T07:46:14;7.50;;;4.10;;
79241;SDS011;68670;48.720;9.118;2024-01-30T07:48:40;10.60;;;4.53;;
79241;SDS011;68670;48.720;9.118;2024-01-30T07:51:05;10.23;;;3.93;;
79241;SDS011;68670;48.720;9.118;2024-01-30T07:53:30;7.63;;;4.07;;
79241;SDS011;68670;48.720;9.118;2024-01-30T07:55:57;9.15;;;4.50;;
79241;SDS011;68670;48.720;9.118;2024-01-30T07:58:23;11.05;;;4.45;;
79241;SDS011;68670;48.720;9.118;2024-01-30T08:00:48;8.52;;;4.22;;
79241;SDS011;68670;48.720;9.118;2024-01-30T08:03:14;8.70;;;4.85;;
79241;SDS011;68670;48.720;9.118;2024-01-30T08:05:41;7.97;;;4.20;;
79241;SDS011;68670;48.720;9.118;2024-01-30T08:08:06;8.25;;;4.65;;
79241;SDS011;68670;48.720;9.118;2024-01-30T08:10:32;8.63;;;4.70;;
79241;SDS011;68670;48.720;9.118;2024-01-30T08:12:57;9.53;;;5.10;;
79241;SDS011;68670;48.720;9.118;2024-01-30T08:15:22;7.77;;;4.53;;
79241;SDS011;68670;48.720;9.118;2024-01-30T08:17:48;8.77;;;4.70;;
79241;SDS011;68670;48.720;9.118;2024-01-30T08:20:13;10.82;;;4.82;;
79241;SDS011;68670;48.720;9.118;2024-01-30T08:22:39;12.80;;;5.80;;
79241;SDS011;68670;48.720;9.118;2024-01-30T08:25:05;10.20;;;5.20;;
79241;SDS011;68670;48.720;9.118;2024-01-30T08:27:31;12.25;;;5.20;;
79241;SDS011;68670;48.720;9.118;2024-01-30T08:29:56;16.50;;;6.32;;
79241;SDS011;68670;48.720;9.118;2024-01-30T08:32:24;15.57;;;5.50;;
79241;SDS011;68670;48.720;9.118;2024-01-30T08:34:49;13.13;;;6.30;;
79241;SDS011;68670;48.720;9.118;2024-01-30T08:37:17;14.50;;;5.60;;
79241;SDS011;68670;48.720;9.118;2024-01-30T08:39:43;11.52;;;6.22;;
79241;SDS011;68670;48.720;9.118;2024-01-30T08:42:09;12.88;;;5.80;;
79241;SDS011;68670;48.720;9.118;2024-01-30T08:44:34;13.25;;;5.97;;
79241;SDS011;68670;48.720;9.118;2024-01-30T08:46:59;13.87;;;5.57;;
79241;SDS011;68670;48.720;9.118;2024-01-30T08:49:24;11.83;;;6.03;;
79241;SDS011;68670;48.720;9.118;2024-01-30T08:51:50;11.57;;;5.63;;
79241;SDS011;68670;48.720;9.118;2024-01-30T08:54:15;12.60;;;5.40;;
79241;SDS011;68670;48.720;9.118;2024-01-30T08:56:40;10.60;;;5.55;;
79241;SDS011;68670;48.720;9.118;2024-01-30T08:59:06;12.73;;;6.07;;
79241;SDS011;68670;48.720;9.118;2024-01-30T09:01:31;16.38;;;6.18;;
79241;SDS011;68670;48.720;9.118;2024-01-30T09:03:57;13.77;;;5.70;;
79241;SDS011;68670;48.720;9.118;2024-01-30T09:06:24;13.82;;;6.47;;
79241;SDS011;68670;48.720;9.118;2024-01-30T09:08:52;10.40;;;6.05;;
79241;SDS011;68670;48.720;9.118;2024-01-30T09:11:18;10.95;;;6.55;;
79241;SDS011;68670;48.720;9.118;2024-01-30T09:13:43;9.77;;;5.95;;
79241;SDS011;68670;48.720;9.118;2024-01-30T09:16:11;9.77;;;5.88;;
79241;SDS011;68670;48.720;9.118;2024-01-30T09:18:36;12.52;;;6.45;;
79241;SDS011;68670;48.720;9.118;2024-01-30T09:21:02;13.15;;;6.22;;
79241;SDS011;68670;48.720;9.118;2024-01-30T09:23:27;11.13;;;6.15;;
79241;SDS011;68670;48.720;9.118;2024-01-30T09:25:56;13.27;;;5.90;;
79241;SDS011;68670;48.720;9.118;2024-01-30T09:28:25;14.90;;;6.15;;
79241;SDS011;68670;48.720;9.118;2024-01-30T09:30:53;12.18;;;6.28;;
79241;SDS011;68670;48.720;9.118;2024-01-30T09:33:21;10.95;;;5.88;;
79241;SDS011;68670;48.720;9.118;2024-01-30T09:35:46;12.40;;;5.82;;
79241;SDS011;68670;48.720;9.118;2024-01-30T09:38:13;10.27;;;5.82;;
79241;SDS011;68670;48.720;9.118;2024-01-30T09:40:41;10.93;;;5.40;;
79241;SDS011;68670;48.720;9.118;2024-01-30T09:43:07;12.05;;;5.53;;
79241;SDS011;68670;48.720;9.118;2024-01-30T09:45:32;12.70;;;5.50;;
79241;SDS011;68670;48.720;9.118;2024-01-30T09:48:02;12.13;;;6.32;;
79241;SDS011;68670;48.720;9.118;2024-01-30T09:50:31;10.90;;;5.55;;
79241;SDS011;68670;48.720;9.118;2024-01-30T09:52:59;10.10;;;5.75;;
79241;SDS011;68670;48.720;9.118;2024-01-30T09:55:24;10.48;;;5.28;;
79241;SDS011;68670;48.720;9.118;2024-01-30T09:57:50;11.50;;;4.97;;
79241;SDS011;68670;48.720;9.118;2024-01-30T10:00:16;14.33;;;5.00;;
79241;SDS011;68670;48.720;9.118;2024-01-30T10:02:44;12.63;;;5.03;;
79241;SDS011;68670;48.720;9.118;2024-01-30T10:05:10;5.35;;;2.95;;
79241;SDS011;68670;48.720;9.118;2024-01-30T10:07:49;2.72;;;1.63;;
79241;SDS011;68670;48.720;9.118;2024-01-30T10:10:15;3.97;;;1.55;;
79241;SDS011;68670;48.720;9.118;2024-01-30T10:12:40;4.13;;;1.77;;
79241;SDS011;68670;48.720;9.118;2024-01-30T10:15:08;3.72;;;1.92;;
79241;SDS011;68670;48.720;9.118;2024-01-30T10:17:34;3.50;;;1.83;;
79241;SDS011;68670;48.720;9.118;2024-01-30T10:20:04;2.22;;;1.60;;
79241;SDS011;68670;48.720;9.118;2024-01-30T10:22:30;3.47;;;1.80;;
79241;SDS011;68670;48.720;9.118;2024-01-30T10:25:00;3.72;;;1.92;;
79241;SDS011;68670;48.720;9.118;2024-01-30T10:27:28;3.78;;;1.50;;
79241;SDS011;68670;48.720;9.118;2024-01-30T10:29:58;2.70;;;1.70;;
79241;SDS011;68670;48.720;9.118;2024-01-30T10:32:25;4.80;;;2.00;;
79241;SDS011;68670;48.720;9.118;2024-01-30T10:34:51;4.05;;;2.00;;
79241;SDS011;68670;48.720;9.118;2024-01-30T10:37:16;3.42;;;1.92;;
79241;SDS011;68670;48.720;9.118;2024-01-30T10:39:44;5.38;;;2.13;;
79241;SDS011;68670;48.720;9.118;2024-01-30T10:42:13;5.47;;;2.30;;
79241;SDS011;68670;48.720;9.118;2024-01-30T10:44:52;3.55;;;1.90;;
79241;SDS011;68670;48.720;9.118;2024-01-30T10:47:37;3.65;;;1.90;;
79241;SDS011;68670;48.720;9.118;2024-01-30T10:50:05;3.42;;;1.88;;
79241;SDS011;68670;48.720;9.118;2024-01-30T10:52:35;3.00;;;1.90;;
79241;SDS011;68670;48.720;9.118;2024-01-30T10:55:01;4.10;;;1.73;;
79241;SDS011;68670;48.720;9.118;2024-01-30T10:57:31;4.43;;;2.30;;
79241;SDS011;68670;48.720;9.118;2024-01-30T10:59:59;2.90;;;1.60;;
79241;SDS011;68670;48.720;9.118;2024-01-30T11:02:30;4.78;;;1.80;;
79241;SDS011;68670;48.720;9.118;2024-01-30T11:04:59;18.95;;;7.95;;
79241;SDS011;68670;48.720;9.118;2024-01-30T11:07:27;5.25;;;2.40;;
79241;SDS011;68670;48.720;9.118;2024-01-30T11:10:04;3.50;;;1.85;;
79241;SDS011;68670;48.720;9.118;2024-01-30T11:12:32;2.70;;;1.85;;
79241;SDS011;68670;48.720;9.118;2024-01-30T11:17:43;2.95;;;1.95;;
79241;SDS011;68670;48.720;9.118;2024-01-30T11:20:11;2.70;;;1.48;;
79241;SDS011;68670;48.720;9.118;2024-01-30T11:22:41;3.67;;;1.77;;
79241;SDS011;68670;48.720;9.118;2024-01-30T11:25:13;4.93;;;1.70;;
79241;SDS011;68670;48.720;9.118;2024-01-30T11:27:41;3.60;;;1.80;;
79241;SDS011;68670;48.720;9.118;2024-01-30T11:30:06;3.05;;;2.15;;
79241;SDS011;68670;48.720;9.118;2024-01-30T11:32:33;5.50;;;1.80;;
79241;SDS011;68670;48.720;9.118;2024-01-30T11:35:00;4.65;;;1.70;;
79241;SDS011;68670;48.720;9.118;2024-01-30T11:37:32;5.18;;;1.88;;
79241;SDS011;68670;48.720;9.118;2024-01-30T11:40:02;3.83;;;1.67;;
79241;SDS011;68670;48.720;9.118;2024-01-30T11:42:29;3.60;;;1.85;;
79241;SDS011;68670;48.720;9.118;2024-01-30T11:44:55;4.05;;;1.75;;
79241;SDS011;68670;48.720;9.118;2024-01-30T11:47:20;3.80;;;1.70;;
79241;SDS011;68670;48.720;9.118;2024-01-30T11:49:45;3.08;;;1.70;;
79241;SDS011;68670;48.720;9.118;2024-01-30T11:52:11;3.03;;;1.60;;
79241;SDS011;68670;48.720;9.118;2024-01-30T11:54:39;2.83;;;1.48;;
79241;SDS011;68670;48.720;9.118;2024-01-30T11:57:07;3.97;;;1.67;;
79241;SDS011;68670;48.720;9.118;2024-01-30T11:59:32;4.32;;;1.60;;
79241;SDS011;68670;48.720;9.118;2024-01-30T12:01:57;3.37;;;1.53;;
79241;SDS011;68670;48.720;9.118;2024-01-30T12:04:23;6.17;;;1.70;;
79241;SDS011;68670;48.720;9.118;2024-01-30T12:06:51;4.13;;;1.63;;
79241;SDS011;68670;48.720;9.118;2024-01-30T12:09:16;11.10;;;5.88;;
79241;SDS011;68670;48.720;9.118;2024-01-30T12:11:46;3.65;;;2.03;;
79241;SDS011;68670;48.720;9.118;2024-01-30T12:14:15;3.30;;;1.88;;
79241;SDS011;68670;48.720;9.118;2024-01-30T12:16:48;5.47;;;2.40;;
79241;SDS011;68670;48.720;9.118;2024-01-30T12:19:21;3.83;;;1.90;;
79241;SDS011;68670;48.720;9.118;2024-01-30T12:21:59;3.40;;;1.77;;
79241;SDS011;68670;48.720;9.118;2024-01-30T12:24:27;13.75;;;3.15;;
79241;SDS011;68670;48.720;9.118;2024-01-30T12:26:58;8.65;;;3.05;;
79241;SDS011;68670;48.720;9.118;2024-01-30T12:29:25;7.97;;;3.05;;
79241;SDS011;68670;48.720;9.118;2024-01-30T12:31:55;4.93;;;2.20;;
79241;SDS011;68670;48.720;9.118;2024-01-30T12:34:20;5.55;;;2.08;;
79241;SDS011;68670;48.720;9.118;2024-01-30T12:36:48;5.20;;;2.17;;
79241;SDS011;68670;48.720;9.118;2024-01-30T12:39:16;3.22;;;2.15;;
79241;SDS011;68670;48.720;9.118;2024-01-30T12:41:41;4.18;;;2.00;;
79241;SDS011;68670;48.720;9.118;2024-01-30T12:44:07;4.18;;;1.80;;
79241;SDS011;68670;48.720;9.118;2024-01-30T12:46:34;2.75;;;1.70;;
79241;SDS011;68670;48.720;9.118;2024-01-30T12:49:02;3.85;;;1.33;;
79241;SDS011;68670;48.720;9.118;2024-01-30T12:51:27;2.80;;;1.60;;
79241;SDS011;68670;48.720;9.118;2024-01-30T12:53:53;3.30;;;1.58;;
79241;SDS011;68670;48.720;9.118;2024-01-30T12:56:18;3.30;;;1.60;;
79241;SDS011;68670;48.720;9.118;2024-01-30T12:58:46;4.07;;;2.10;;
79241;SDS011;68670;48.720;9.118;2024-01-30T13:01:11;7.45;;;1.70;;
79241;SDS011;68670;48.720;9.118;2024-01-30T13:03:39;5.55;;;1.90;;
79241;SDS011;68670;48.720;9.118;2024-01-30T13:06:05;3.80;;;1.80;;
79241;SDS011;68670;48.720;9.118;2024-01-30T13:08:30;5.05;;;2.10;;
79241;SDS011;68670;48.720;9.118;2024-01-30T13:10:56;5.65;;;3.00;;
79241;SDS011;68670;48.720;9.118;2024-01-30T13:13:21;3.35;;;2.10;;
79241;SDS011;68670;48.720;9.118;2024-01-30T13:15:49;3.75;;;1.83;;
79241;SDS011;68670;48.720;9.118;2024-01-30T13:18:14;3.60;;;2.13;;
79241;SDS011;68670;48.720;9.118;2024-01-30T13:20:42;5.28;;;2.40;;
79241;SDS011;68670;48.720;9.118;2024-01-30T13:23:09;3.13;;;1.73;;
79241;SDS011;68670;48.720;9.118;2024-01-30T13:25:34;3.63;;;1.73;;
79241;SDS011;68670;48.720;9.118;2024-01-30T13:28:00;3.80;;;1.93;;
79241;SDS011;68670;48.720;9.118;2024-01-30T13:30:27;3.78;;;1.67;;
79241;SDS011;68670;48.720;9.118;2024-01-30T13:32:53;3.83;;;1.73;;
79241;SDS011;68670;48.720;9.118;2024-01-30T13:35:19;3.85;;;1.80;;
79241;SDS011;68670;48.720;9.118;2024-01-30T13:37:44;2.93;;;1.60;;
79241;SDS011;68670;48.720;9.118;2024-01-30T13:40:14;3.35;;;1.63;;
79241;SDS011;68670;48.720;9.118;2024-01-30T13:42:42;4.43;;;2.15;;
79241;SDS011;68670;48.720;9.118;2024-01-30T13:45:07;5.05;;;2.20;;
79241;SDS011;68670;48.720;9.118;2024-01-30T13:47:34;5.40;;;2.40;;
79241;SDS011;68670;48.720;9.118;2024-01-30T13:50:00;4.43;;;2.50;;
79241;SDS011;68670;48.720;9.118;2024-01-30T13:52:25;7.13;;;2.97;;
79241;SDS011;68670;48.720;9.118;2024-01-30T13:54:52;3.30;;;1.70;;
79241;SDS011;68670;48.720;9.118;2024-01-30T13:57:18;3.03;;;1.70;;
79241;SDS011;68670;48.720;9.118;2024-01-30T13:59:43;4.35;;;2.80;;
79241;SDS011;68670;48.720;9.118;2024-01-30T14:02:11;4.90;;;2.22;;
79241;SDS011;68670;48.720;9.118;2024-01-30T14:04:36;4.60;;;2.88;;
79241;SDS011;68670;48.720;9.118;2024-01-30T14:07:02;3.67;;;1.85;;
79241;SDS011;68670;48.720;9.118;2024-01-30T14:09:28;5.00;;;2.58;;
79241;SDS011;68670;48.720;9.118;2024-01-30T14:11:53;3.22;;;1.83;;
79241;SDS011;68670;48.720;9.118;2024-01-30T14:14:23;4.22;;;2.03;;
79241;SDS011;68670;48.720;9.118;2024-01-30T14:16:48;3.10;;;1.90;;
79241;SDS011;68670;48.720;9.118;2024-01-30T14:19:14;4.55;;;1.80;;
79241;SDS011;68670;48.720;9.118;2024-01-30T14:21:39;2.80;;;1.80;;
79241;SDS011;68670;48.720;9.118;2024-01-30T14:24:06;4.28;;;1.80;;
79241;SDS011;68670;48.720;9.118;2024-01-30T14:26:32;3.65;;;2.08;;
79241;SDS011;68670;48.720;9.118;2024-01-30T14:28:57;5.00;;;1.83;;
79241;SDS011;68670;48.720;9.118;2024-01-30T14:31:24;4.60;;;2.10;;
79241;SDS011;68670;48.720;9.118;2024-01-30T14:33:50;5.33;;;2.50;;
79241;SDS011;68670;48.720;9.118;2024-01-30T14:36:17;5.50;;;2.13;;
79241;SDS011;68670;48.720;9.118;2024-01-30T14:38:45;5.40;;;1.85;;
79241;SDS011;68670;48.720;9.118;2024-01-30T14:41:10;4.00;;;2.20;;
79241;SDS011;68670;48.720;9.118;2024-01-30T14:43:36;4.93;;;2.30;;
79241;SDS011;68670;48.720;9.118;2024-01-30T14:46:02;3.85;;;2.00;;
79241;SDS011;68670;48.720;9.118;2024-01-30T14:48:28;5.75;;;2.17;;
79241;SDS011;68670;48.720;9.118;2024-01-30T14:50:53;8.15;;;2.70;;
79241;SDS011;68670;48.720;9.118;2024-01-30T14:53:18;17.87;;;5.47;;
79241;SDS011;68670;48.720;9.118;2024-01-30T14:55:46;11.32;;;3.10;;